createdAt,value
2023-03-05T00:02:34.000Z,100
2023-03-05T00:07:35.000Z,100
2023-03-05T00:12:34.000Z,100
2023-03-05T00:22:35.000Z,100
2023-03-05T00:27:35.000Z,100
2023-03-05T00:32:35.000Z,100
2023-03-05T00:37:34.000Z,100
2023-03-05T00:42:35.000Z,100
2023-03-05T00:47:35.000Z,100
2023-03-05T00:52:34.000Z,100
2023-03-05T00:57:35.000Z,100
2023-03-05T01:02:35.000Z,100
2023-03-05T01:07:35.000Z,100
2023-03-05T01:12:35.000Z,100
2023-03-05T01:17:35.000Z,100
2023-03-05T01:22:35.000Z,100
2023-03-05T01:27:34.000Z,100
2023-03-05T01:37:34.000Z,100
2023-03-05T01:42:35.000Z,100
2023-03-05T01:47:35.000Z,100
2023-03-05T01:52:35.000Z,100
2023-03-05T01:57:34.000Z,100
2023-03-05T02:02:35.000Z,100
2023-03-05T02:07:35.000Z,100
2023-03-05T02:12:34.000Z,100
2023-03-05T02:17:35.000Z,100
2023-03-05T02:22:34.000Z,100
2023-03-05T02:27:35.000Z,100
2023-03-05T02:32:35.000Z,100
2023-03-05T02:37:35.000Z,100
2023-03-05T02:42:34.000Z,100
2023-03-05T02:47:35.000Z,100
2023-03-05T02:52:34.000Z,100
2023-03-05T03:02:35.000Z,100
2023-03-05T03:07:35.000Z,100
2023-03-05T03:12:35.000Z,100
2023-03-05T03:17:34.000Z,100
2023-03-05T03:22:35.000Z,100
2023-03-05T03:27:34.000Z,100
2023-03-05T03:32:35.000Z,100
2023-03-05T03:37:34.000Z,100
2023-03-05T03:42:35.000Z,100
2023-03-05T03:47:34.000Z,100
2023-03-05T03:52:35.000Z,100
2023-03-05T03:57:34.000Z,100
2023-03-05T04:02:34.000Z,100
2023-03-05T04:07:35.000Z,100
2023-03-05T04:12:34.000Z,100
2023-03-05T04:17:35.000Z,100
2023-03-05T04:22:34.000Z,100
2023-03-05T04:27:35.000Z,100
2023-03-05T04:32:34.000Z,100
2023-03-05T04:37:35.000Z,100
2023-03-05T04:42:34.000Z,100
2023-03-05T04:47:35.000Z,100
2023-03-05T04:52:34.000Z,100
2023-03-05T04:57:35.000Z,100
2023-03-05T05:02:35.000Z,100
2023-03-05T05:07:35.000Z,100
2023-03-05T05:12:34.000Z,100
2023-03-05T05:17:35.000Z,100
2023-03-05T05:22:35.000Z,100
2023-03-05T05:27:35.000Z,100
2023-03-05T05:32:34.000Z,100
2023-03-05T05:37:35.000Z,100
2023-03-05T05:42:34.000Z,100
2023-03-05T05:47:35.000Z,100
2023-03-05T05:57:35.000Z,100
2023-03-05T06:02:34.000Z,100
2023-03-05T06:07:35.000Z,100
2023-03-05T06:12:35.000Z,100
2023-03-05T06:17:41.000Z,100
2023-03-05T06:22:35.000Z,100
2023-03-05T06:27:34.000Z,100
2023-03-05T06:32:35.000Z,100
2023-03-05T06:37:34.000Z,100
2023-03-05T06:42:34.000Z,100
2023-03-05T06:47:35.000Z,100
2023-03-05T06:52:35.000Z,100
2023-03-05T06:57:34.000Z,100
2023-03-05T07:02:35.000Z,100
2023-03-05T07:07:34.000Z,100
2023-03-05T07:12:35.000Z,100
2023-03-05T07:17:34.000Z,100
2023-03-05T07:22:35.000Z,100
2023-03-05T07:27:35.000Z,100
2023-03-05T07:32:35.000Z,100
2023-03-05T07:37:34.000Z,100
2023-03-05T07:42:35.000Z,100
2023-03-05T07:47:34.000Z,100
2023-03-05T07:52:35.000Z,100
2023-03-05T07:57:34.000Z,100
2023-03-05T08:02:35.000Z,100
2023-03-05T08:07:35.000Z,100
2023-03-05T08:12:34.000Z,100
2023-03-05T08:17:35.000Z,100
2023-03-05T08:22:34.000Z,100
2023-03-05T08:27:35.000Z,100
2023-03-05T08:32:35.000Z,100
2023-03-05T08:37:35.000Z,100
2023-03-05T08:42:35.000Z,100
2023-03-05T08:47:35.000Z,100
2023-03-05T08:52:34.000Z,100
2023-03-05T08:57:35.000Z,100
2023-03-05T09:02:35.000Z,100
2023-03-05T09:07:34.000Z,100
2023-03-05T09:12:35.000Z,100
2023-03-05T09:17:34.000Z,100
2023-03-05T09:22:35.000Z,100
2023-03-05T09:27:34.000Z,100
2023-03-05T09:32:35.000Z,100
2023-03-05T09:37:34.000Z,100
2023-03-05T09:42:35.000Z,100
2023-03-05T09:47:35.000Z,100
2023-03-05T09:52:35.000Z,100
2023-03-05T09:57:35.000Z,100
2023-03-05T10:02:35.000Z,99.62
2023-03-05T10:07:34.000Z,90.64
2023-03-05T10:12:35.000Z,94.13
2023-03-05T10:17:34.000Z,99.74
2023-03-05T10:22:34.000Z,100
2023-03-05T10:27:35.000Z,100
2023-03-05T10:32:35.000Z,100
2023-03-05T10:37:35.000Z,100
2023-03-05T10:42:35.000Z,100
2023-03-05T10:47:34.000Z,100
2023-03-05T10:52:35.000Z,100
2023-03-05T10:57:35.000Z,100
2023-03-05T11:02:35.000Z,100
2023-03-05T11:07:35.000Z,100
2023-03-05T11:12:34.000Z,100
2023-03-05T11:17:35.000Z,100
2023-03-05T11:22:35.000Z,100
2023-03-05T11:27:34.000Z,100
2023-03-05T11:32:35.000Z,100
2023-03-05T11:37:35.000Z,100
2023-03-05T11:42:34.000Z,100
2023-03-05T11:47:35.000Z,100
2023-03-05T11:52:35.000Z,100
2023-03-05T11:57:35.000Z,100
2023-03-05T12:02:34.000Z,100
2023-03-05T12:07:38.000Z,100
2023-03-05T12:12:35.000Z,100
2023-03-05T12:17:34.000Z,100
2023-03-05T12:22:35.000Z,100
2023-03-05T12:27:35.000Z,100
2023-03-05T12:32:35.000Z,100
2023-03-05T12:37:35.000Z,100
2023-03-05T12:42:35.000Z,100
2023-03-05T12:47:34.000Z,100
2023-03-05T12:52:35.000Z,100
2023-03-05T12:57:35.000Z,99.97
2023-03-05T13:02:34.000Z,99.99
2023-03-05T13:07:34.000Z,99.99
2023-03-05T13:12:35.000Z,99.98
2023-03-05T13:17:35.000Z,98.45
2023-03-05T13:22:35.000Z,91.56
2023-03-05T13:27:34.000Z,85.71
2023-03-05T13:32:35.000Z,83.34
2023-03-05T13:37:34.000Z,84.29
2023-03-05T13:42:35.000Z,89.57
2023-03-05T13:47:35.000Z,88.91
2023-03-05T13:52:35.000Z,86.51
2023-03-05T13:57:34.000Z,83.18
2023-03-05T14:02:34.000Z,82.68
2023-03-05T14:07:35.000Z,82.36
2023-03-05T14:12:35.000Z,83.35
2023-03-05T14:17:35.000Z,90.06
2023-03-05T14:22:35.000Z,93.85
2023-03-05T14:27:34.000Z,97.42
2023-03-05T14:32:35.000Z,99.93
2023-03-05T14:37:34.000Z,100
2023-03-05T14:42:35.000Z,100
2023-03-05T14:47:35.000Z,100
2023-03-05T14:52:35.000Z,100
2023-03-05T14:57:34.000Z,100
2023-03-05T15:02:35.000Z,99.66
2023-03-05T15:07:35.000Z,100
2023-03-05T15:12:35.000Z,100
2023-03-05T15:17:34.000Z,100
2023-03-05T15:22:35.000Z,100
2023-03-05T15:27:34.000Z,100
2023-03-05T15:32:35.000Z,100
2023-03-05T15:37:34.000Z,100
2023-03-05T15:42:35.000Z,100
2023-03-05T15:47:34.000Z,100
2023-03-05T15:52:35.000Z,100
2023-03-05T15:57:36.000Z,98.86
2023-03-05T16:02:34.000Z,100
2023-03-05T16:07:34.000Z,98.18
2023-03-05T16:12:35.000Z,96.91
2023-03-05T16:17:35.000Z,94.53
2023-03-05T16:22:35.000Z,90.36
2023-03-05T16:27:34.000Z,88.31
2023-03-05T16:32:35.000Z,89.25
2023-03-05T16:42:34.000Z,86.45
2023-03-05T16:47:35.000Z,87.41
2023-03-05T16:52:34.000Z,90.82
2023-03-05T16:57:35.000Z,94.55
2023-03-05T17:02:35.000Z,94.55
2023-03-05T17:07:35.000Z,98.49
2023-03-05T17:12:34.000Z,98.77
2023-03-05T17:17:35.000Z,99.94
2023-03-05T17:22:34.000Z,99.99
2023-03-05T17:27:35.000Z,99.83
2023-03-05T17:32:34.000Z,99.96
2023-03-05T17:37:35.000Z,100
2023-03-05T17:42:35.000Z,100
2023-03-05T17:47:35.000Z,100
2023-03-05T17:52:35.000Z,100
2023-03-05T17:57:34.000Z,99.71
2023-03-05T18:02:35.000Z,99.71
2023-03-05T18:07:35.000Z,100
2023-03-05T18:12:34.000Z,100
2023-03-05T18:17:35.000Z,100
2023-03-05T18:22:34.000Z,99.2
2023-03-05T18:27:35.000Z,99.57
2023-03-05T18:32:35.000Z,100
2023-03-05T18:37:35.000Z,100
2023-03-05T18:42:34.000Z,100
2023-03-05T18:47:35.000Z,100
2023-03-05T18:52:35.000Z,100
2023-03-05T18:57:34.000Z,99.97
2023-03-05T19:02:35.000Z,100
2023-03-05T19:07:35.000Z,100
2023-03-05T19:12:35.000Z,100
2023-03-05T19:17:35.000Z,100
2023-03-05T19:22:34.000Z,100
2023-03-05T19:27:35.000Z,100
2023-03-05T19:32:35.000Z,100
2023-03-05T19:37:35.000Z,100
2023-03-05T19:42:34.000Z,100
2023-03-05T19:47:35.000Z,100
2023-03-05T19:52:34.000Z,100
2023-03-05T19:57:35.000Z,100
2023-03-05T20:02:34.000Z,100
2023-03-05T20:07:35.000Z,100
2023-03-05T20:12:35.000Z,100
2023-03-05T20:17:34.000Z,100
2023-03-05T20:22:35.000Z,100
2023-03-05T20:27:34.000Z,100
2023-03-05T20:32:35.000Z,100
2023-03-05T20:37:34.000Z,100
2023-03-05T20:42:35.000Z,100
2023-03-05T20:47:34.000Z,100
2023-03-05T20:52:35.000Z,100
2023-03-05T20:57:35.000Z,100
2023-03-05T21:02:35.000Z,100
2023-03-05T21:07:34.000Z,100
2023-03-05T21:12:35.000Z,100
2023-03-05T21:17:34.000Z,100
2023-03-05T21:22:35.000Z,100
2023-03-05T21:27:34.000Z,100
2023-03-05T21:32:35.000Z,100
2023-03-05T21:37:35.000Z,100
2023-03-05T21:42:35.000Z,100
2023-03-05T21:52:34.000Z,100
2023-03-05T21:57:35.000Z,100
2023-03-05T22:02:35.000Z,100
2023-03-05T22:07:35.000Z,100
2023-03-05T22:12:35.000Z,100
2023-03-05T22:17:35.000Z,100
2023-03-05T22:22:34.000Z,100
2023-03-05T22:27:35.000Z,100
2023-03-05T22:32:34.000Z,100
2023-03-05T22:37:35.000Z,100
2023-03-05T22:42:34.000Z,100
2023-03-05T22:47:35.000Z,100
2023-03-05T22:52:34.000Z,100
2023-03-05T22:57:35.000Z,100
2023-03-05T23:02:35.000Z,100
2023-03-05T23:07:35.000Z,100
2023-03-05T23:12:35.000Z,100
2023-03-05T23:22:35.000Z,100
2023-03-05T23:27:35.000Z,100
2023-03-05T23:37:35.000Z,100
2023-03-05T23:42:35.000Z,100
2023-03-05T23:47:35.000Z,100
2023-03-05T23:52:34.000Z,100
2023-03-05T23:57:35.000Z,100
